createdAt,value
2018-08-31T00:02:30.033Z,12.50
2018-08-31T00:05:39.868Z,13.20
2018-08-31T00:10:37.503Z,13.17
2018-08-31T00:13:07.089Z,13.30
2018-08-31T00:15:35.937Z,11.63
2018-08-31T00:18:04.971Z,12.93
2018-08-31T00:20:33.837Z,13.23
2018-08-31T00:23:02.644Z,13.30
2018-08-31T00:26:09.975Z,13.87
2018-08-31T00:28:50.760Z,12.20
2018-08-31T00:33:37.373Z,12.37
2018-08-31T00:40:26.695Z,13.77
2018-08-31T00:45:13.967Z,12.07
2018-08-31T00:47:43.231Z,12.20
2018-08-31T00:50:12.179Z,12.43
2018-08-31T00:52:40.937Z,11.13
2018-08-31T00:55:09.801Z,12.33
2018-08-31T00:57:38.923Z,12.87
2018-08-31T01:00:08.057Z,12.97
2018-08-31T01:02:36.851Z,12.33
2018-08-31T01:05:05.774Z,11.63
2018-08-31T01:07:34.685Z,12.77
2018-08-31T01:10:03.613Z,14.23
2018-08-31T01:12:32.669Z,12.97
2018-08-31T01:15:01.475Z,13.13
2018-08-31T01:17:30.407Z,13.47
2018-08-31T01:19:59.473Z,13.83
2018-08-31T01:22:28.371Z,13.80
2018-08-31T01:24:57.163Z,13.17
2018-08-31T01:27:25.963Z,13.07
2018-08-31T01:29:54.735Z,13.53
2018-08-31T01:32:23.662Z,14.23
2018-08-31T01:34:52.434Z,12.77
2018-08-31T01:37:21.516Z,13.10
2018-08-31T01:39:50.504Z,13.90
2018-08-31T01:42:19.620Z,14.23
2018-08-31T01:44:48.455Z,13.00
2018-08-31T01:47:17.364Z,12.33
2018-08-31T01:49:46.362Z,12.67
2018-08-31T01:52:15.247Z,11.87
2018-08-31T01:54:44.031Z,12.53
2018-08-31T01:57:12.839Z,14.20
2018-08-31T01:59:41.848Z,12.90
2018-08-31T02:02:10.729Z,13.27
2018-08-31T02:04:39.610Z,12.23
2018-08-31T02:07:09.160Z,13.13
2018-08-31T02:09:38.055Z,12.50
2018-08-31T02:12:07.050Z,14.47
2018-08-31T02:14:35.860Z,13.40
2018-08-31T02:17:04.887Z,13.37
2018-08-31T02:19:33.778Z,13.30
2018-08-31T02:22:03.048Z,12.47
2018-08-31T02:24:31.940Z,13.30
2018-08-31T02:27:00.730Z,12.87
2018-08-31T02:29:29.573Z,12.10
2018-08-31T02:31:58.517Z,13.13
2018-08-31T02:34:27.510Z,12.23
2018-08-31T02:36:56.358Z,12.47
2018-08-31T02:39:25.357Z,12.27
2018-08-31T02:41:54.175Z,11.83
2018-08-31T02:44:23.096Z,11.67
2018-08-31T02:46:51.992Z,11.93
2018-08-31T02:49:21.020Z,12.37
2018-08-31T02:51:49.914Z,12.77
2018-08-31T02:54:18.858Z,13.07
2018-08-31T02:56:47.733Z,14.17
2018-08-31T02:59:16.542Z,12.27
2018-08-31T03:01:45.516Z,11.60
2018-08-31T03:04:14.550Z,12.00
2018-08-31T03:06:43.552Z,10.60
2018-08-31T03:09:12.485Z,10.73
2018-08-31T03:11:41.606Z,12.30
2018-08-31T03:14:10.530Z,12.97
2018-08-31T03:16:40.619Z,12.03
2018-08-31T03:19:09.530Z,12.80
2018-08-31T03:21:38.398Z,12.97
2018-08-31T03:24:07.323Z,14.30
2018-08-31T03:26:36.167Z,14.00
2018-08-31T03:29:05.031Z,14.03
2018-08-31T03:31:33.894Z,12.63
2018-08-31T03:34:02.741Z,12.15
2018-08-31T03:36:31.869Z,13.03
2018-08-31T03:39:00.689Z,11.70
2018-08-31T03:41:29.524Z,12.50
2018-08-31T03:43:58.364Z,13.40
2018-08-31T03:46:27.229Z,13.07
2018-08-31T03:48:56.120Z,12.97
2018-08-31T03:51:25.000Z,13.33
2018-08-31T03:53:53.815Z,12.50
2018-08-31T03:56:22.564Z,12.87
2018-08-31T03:58:51.409Z,12.83
2018-08-31T04:01:20.274Z,13.37
2018-08-31T04:03:49.025Z,13.43
2018-08-31T04:06:18.041Z,14.27
2018-08-31T04:08:46.913Z,14.17
2018-08-31T04:11:15.894Z,14.30
2018-08-31T04:13:44.694Z,13.60
2018-08-31T04:16:13.594Z,13.77
2018-08-31T04:18:42.485Z,13.70
2018-08-31T04:21:11.329Z,13.63
2018-08-31T04:23:40.167Z,12.83
2018-08-31T04:26:09.060Z,13.47
2018-08-31T04:28:38.002Z,14.33
2018-08-31T04:31:06.781Z,13.67
2018-08-31T04:33:35.572Z,13.50
2018-08-31T04:36:04.852Z,12.80
2018-08-31T04:38:33.688Z,13.57
2018-08-31T04:41:02.684Z,12.80
2018-08-31T04:43:31.518Z,14.13
2018-08-31T04:46:00.366Z,12.77
2018-08-31T04:48:29.108Z,11.60
2018-08-31T04:50:57.984Z,11.70
2018-08-31T04:53:26.931Z,12.77
2018-08-31T04:55:55.934Z,13.63
2018-08-31T04:58:24.770Z,14.17
2018-08-31T05:00:53.472Z,14.03
2018-08-31T05:03:22.384Z,13.73
2018-08-31T05:05:51.340Z,14.17
2018-08-31T05:08:20.210Z,14.93
2018-08-31T05:10:48.965Z,14.00
2018-08-31T05:13:20.067Z,14.53
2018-08-31T05:15:48.884Z,14.33
2018-08-31T05:18:17.664Z,15.20
2018-08-31T05:20:46.477Z,14.30
2018-08-31T05:23:24.834Z,16.10
2018-08-31T05:25:53.722Z,14.07
2018-08-31T05:28:22.662Z,15.43
2018-08-31T05:30:51.592Z,15.00
2018-08-31T05:33:20.442Z,14.07
2018-08-31T05:35:49.382Z,14.93
2018-08-31T05:38:18.264Z,15.17
2018-08-31T05:40:47.204Z,13.90
2018-08-31T05:43:16.144Z,13.93
2018-08-31T05:45:45.179Z,14.03
2018-08-31T05:48:14.064Z,13.77
2018-08-31T05:50:42.951Z,14.07
2018-08-31T05:53:11.810Z,15.40
2018-08-31T05:55:50.627Z,14.07
2018-08-31T05:58:19.454Z,13.77
2018-08-31T06:00:48.538Z,11.93
2018-08-31T06:03:23.386Z,12.90
2018-08-31T06:05:58.684Z,11.60
2018-08-31T06:08:27.714Z,12.30
2018-08-31T06:10:56.590Z,12.37
2018-08-31T06:13:25.514Z,11.27
2018-08-31T06:15:54.595Z,11.60
2018-08-31T06:18:23.534Z,11.77
2018-08-31T06:20:52.409Z,12.40
2018-08-31T06:23:21.346Z,10.70
2018-08-31T06:25:50.100Z,11.37
2018-08-31T06:28:18.922Z,11.30
2018-08-31T06:30:47.684Z,12.07
2018-08-31T06:33:16.604Z,11.90
2018-08-31T06:35:45.468Z,11.83
2018-08-31T06:38:14.365Z,11.03
2018-08-31T06:40:45.510Z,11.50
2018-08-31T06:43:14.352Z,11.73
2018-08-31T06:45:43.214Z,11.87
2018-08-31T06:48:12.188Z,11.73
2018-08-31T06:50:41.054Z,11.63
2018-08-31T06:53:09.867Z,12.17
2018-08-31T06:55:39.027Z,12.43
2018-08-31T06:58:07.815Z,11.90
2018-08-31T07:00:36.659Z,11.67
2018-08-31T07:03:05.860Z,11.93
2018-08-31T07:05:42.392Z,11.77
2018-08-31T07:08:11.301Z,12.53
2018-08-31T07:10:40.283Z,11.53
2018-08-31T07:13:09.604Z,10.93
2018-08-31T07:15:38.469Z,11.70
2018-08-31T07:18:07.339Z,10.83
2018-08-31T07:20:36.127Z,11.63
2018-08-31T07:23:05.400Z,11.93
2018-08-31T07:25:34.183Z,10.40
2018-08-31T07:28:03.073Z,10.73
2018-08-31T07:30:32.000Z,10.80
2018-08-31T07:33:00.889Z,10.63
2018-08-31T07:35:29.778Z,10.53
2018-08-31T07:37:58.699Z,10.77
2018-08-31T07:40:27.645Z,10.53
2018-08-31T07:42:56.617Z,10.30
2018-08-31T07:45:25.489Z,10.07
2018-08-31T07:47:54.606Z,10.80
2018-08-31T07:50:23.484Z,10.37
2018-08-31T07:52:52.233Z,10.23
2018-08-31T07:55:21.018Z,10.60
2018-08-31T07:57:49.733Z,10.03
2018-08-31T08:00:18.528Z,9.57
2018-08-31T08:02:47.292Z,10.17
2018-08-31T08:05:16.044Z,9.53
2018-08-31T08:07:44.889Z,10.23
2018-08-31T08:10:13.770Z,10.23
2018-08-31T08:12:42.680Z,9.47
2018-08-31T08:15:11.516Z,9.83
2018-08-31T08:17:40.425Z,10.30
2018-08-31T08:20:09.386Z,10.33
2018-08-31T08:22:38.201Z,9.27
2018-08-31T08:25:07.205Z,9.85
2018-08-31T08:27:36.064Z,10.20
2018-08-31T08:30:05.158Z,9.90
2018-08-31T08:32:34.026Z,9.13
2018-08-31T08:35:02.797Z,9.57
2018-08-31T08:37:37.672Z,8.83
2018-08-31T08:40:06.595Z,8.60
2018-08-31T08:42:35.677Z,8.70
2018-08-31T08:45:04.864Z,8.40
2018-08-31T08:47:33.764Z,7.80
2018-08-31T08:50:02.486Z,10.10
2018-08-31T08:52:31.374Z,8.07
2018-08-31T08:55:00.336Z,7.67
2018-08-31T08:57:29.146Z,8.03
2018-08-31T08:59:57.974Z,8.23
2018-08-31T09:02:26.823Z,7.80
2018-08-31T09:04:55.754Z,8.20
2018-08-31T09:07:24.606Z,7.63
2018-08-31T09:09:53.395Z,7.13
2018-08-31T09:12:22.341Z,7.47
2018-08-31T09:14:51.435Z,7.83
2018-08-31T09:17:20.305Z,8.43
2018-08-31T09:19:49.261Z,8.03
2018-08-31T09:22:18.113Z,6.87
2018-08-31T09:24:46.961Z,7.90
2018-08-31T09:27:15.945Z,7.83
2018-08-31T09:29:44.791Z,8.23
2018-08-31T09:32:18.981Z,7.77
2018-08-31T09:34:52.973Z,8.00
2018-08-31T09:37:21.902Z,8.55
2018-08-31T09:39:50.674Z,8.23
2018-08-31T09:42:19.655Z,9.03
2018-08-31T09:44:48.495Z,8.45
2018-08-31T09:47:17.391Z,8.53
2018-08-31T09:49:47.386Z,7.97
2018-08-31T09:52:17.374Z,8.77
2018-08-31T09:54:46.134Z,8.47
2018-08-31T09:57:15.151Z,8.47
2018-08-31T09:59:43.922Z,8.07
2018-08-31T10:02:18.150Z,7.40
2018-08-31T10:04:47.157Z,7.80
2018-08-31T10:07:16.041Z,7.90
2018-08-31T10:09:44.971Z,8.07
2018-08-31T10:12:13.803Z,8.00
2018-08-31T10:14:42.705Z,7.83
2018-08-31T10:17:12.116Z,7.40
2018-08-31T10:19:40.888Z,7.50
2018-08-31T10:22:09.821Z,7.40
2018-08-31T10:24:38.778Z,7.13
2018-08-31T10:27:08.380Z,7.07
2018-08-31T10:29:38.453Z,6.70
2018-08-31T10:32:07.611Z,6.23
2018-08-31T10:34:36.641Z,6.70
2018-08-31T10:37:05.756Z,7.30
2018-08-31T10:39:34.581Z,6.73
2018-08-31T10:42:03.655Z,6.37
2018-08-31T10:44:32.609Z,7.03
2018-08-31T10:47:01.400Z,6.70
2018-08-31T10:49:30.359Z,6.80
2018-08-31T10:51:59.368Z,6.90
2018-08-31T10:54:28.295Z,6.93
2018-08-31T10:56:57.130Z,7.03
2018-08-31T10:59:26.019Z,5.93
2018-08-31T11:01:54.932Z,6.13
2018-08-31T11:04:24.011Z,6.47
2018-08-31T11:06:52.851Z,6.57
2018-08-31T11:09:21.709Z,6.97
2018-08-31T11:11:50.551Z,6.60
2018-08-31T11:14:19.893Z,5.95
2018-08-31T11:16:48.722Z,6.47
2018-08-31T11:19:17.596Z,6.23
2018-08-31T11:21:46.413Z,6.50
2018-08-31T11:24:15.232Z,6.67
2018-08-31T11:26:43.995Z,6.70
2018-08-31T11:29:13.275Z,6.43
2018-08-31T11:31:41.993Z,6.13
2018-08-31T11:34:10.785Z,5.93
2018-08-31T11:36:39.734Z,6.73
2018-08-31T11:39:10.378Z,6.43
2018-08-31T11:41:39.610Z,6.20
2018-08-31T11:44:08.540Z,6.50
2018-08-31T11:46:37.440Z,6.50
2018-08-31T11:49:06.266Z,7.13
2018-08-31T11:51:35.254Z,6.50
2018-08-31T11:54:04.288Z,6.30
2018-08-31T11:56:33.162Z,5.63
2018-08-31T11:59:02.122Z,6.17
2018-08-31T12:01:31.266Z,6.03
2018-08-31T12:04:00.118Z,5.70
2018-08-31T12:06:28.912Z,5.90
2018-08-31T12:08:57.773Z,5.37
2018-08-31T12:11:26.629Z,5.47
2018-08-31T12:13:55.396Z,5.27
2018-08-31T12:16:24.324Z,5.40
2018-08-31T12:18:53.238Z,5.80
2018-08-31T12:21:22.020Z,5.63
2018-08-31T12:23:51.017Z,5.93
2018-08-31T12:26:19.792Z,5.47
2018-08-31T12:28:48.987Z,5.40
2018-08-31T12:31:17.820Z,6.60
2018-08-31T12:33:46.744Z,5.97
2018-08-31T12:36:15.558Z,5.40
2018-08-31T12:38:44.536Z,5.50
2018-08-31T12:41:13.362Z,5.37
2018-08-31T12:43:42.319Z,5.80
2018-08-31T12:46:11.046Z,6.03
2018-08-31T12:48:40.256Z,5.20
2018-08-31T12:51:09.071Z,5.50
2018-08-31T12:53:37.922Z,5.50
2018-08-31T12:56:06.890Z,5.63
2018-08-31T12:58:35.752Z,5.53
2018-08-31T13:01:04.927Z,5.97
2018-08-31T13:03:33.714Z,5.93
2018-08-31T13:06:02.635Z,5.83
2018-08-31T13:08:31.553Z,5.93
2018-08-31T13:11:00.513Z,5.43
2018-08-31T13:13:29.339Z,5.30
2018-08-31T13:15:58.237Z,6.43
2018-08-31T13:18:27.239Z,5.20
2018-08-31T13:20:56.179Z,6.77
2018-08-31T13:23:25.064Z,6.67
2018-08-31T13:25:53.869Z,6.50
2018-08-31T13:28:22.651Z,6.70
2018-08-31T13:30:51.520Z,6.30
2018-08-31T13:33:20.267Z,6.20
2018-08-31T13:35:49.052Z,6.28
2018-08-31T13:38:17.956Z,6.43
2018-08-31T13:40:46.661Z,7.10
2018-08-31T13:43:15.544Z,7.07
2018-08-31T13:45:44.627Z,6.90
2018-08-31T13:48:13.590Z,7.90
2018-08-31T13:50:42.568Z,7.13
2018-08-31T13:53:11.406Z,6.97
2018-08-31T13:55:40.392Z,6.33
2018-08-31T13:58:09.286Z,6.17
2018-08-31T14:00:38.235Z,6.23
2018-08-31T14:03:07.340Z,7.03
2018-08-31T14:05:36.145Z,6.03
2018-08-31T14:08:05.153Z,5.80
2018-08-31T14:10:33.965Z,6.47
2018-08-31T14:13:02.771Z,6.10
2018-08-31T14:15:31.611Z,6.53
2018-08-31T14:18:00.482Z,6.72
2018-08-31T14:20:29.321Z,6.43
2018-08-31T14:22:58.462Z,6.60
2018-08-31T14:25:27.547Z,6.70
2018-08-31T14:27:56.345Z,6.67
2018-08-31T14:30:25.305Z,6.93
2018-08-31T14:32:54.219Z,6.47
2018-08-31T14:35:23.057Z,6.43
2018-08-31T14:37:52.132Z,7.03
2018-08-31T14:40:20.995Z,6.27
2018-08-31T14:42:49.896Z,6.03
2018-08-31T14:45:18.816Z,6.17
2018-08-31T14:47:47.724Z,6.40
2018-08-31T14:50:16.584Z,6.80
2018-08-31T14:52:45.426Z,6.50
2018-08-31T14:55:14.737Z,6.10
2018-08-31T14:57:43.680Z,6.30
2018-08-31T15:00:12.825Z,6.10
2018-08-31T15:02:41.685Z,6.37
2018-08-31T15:05:10.605Z,6.37
2018-08-31T15:07:39.673Z,6.23
2018-08-31T15:10:08.690Z,6.40
2018-08-31T15:12:37.545Z,6.47
2018-08-31T15:15:06.707Z,6.60
2018-08-31T15:17:35.639Z,7.10
2018-08-31T15:20:04.639Z,6.83
2018-08-31T15:22:34.620Z,6.43
2018-08-31T15:25:03.504Z,6.47
2018-08-31T15:27:32.220Z,6.80
2018-08-31T15:30:01.063Z,6.93
2018-08-31T15:32:33.703Z,6.60
2018-08-31T15:35:02.460Z,6.43
2018-08-31T15:37:31.309Z,6.63
2018-08-31T15:40:00.226Z,6.97
2018-08-31T15:42:29.176Z,7.23
2018-08-31T15:44:58.027Z,6.60
2018-08-31T15:47:29.179Z,6.63
2018-08-31T15:49:58.129Z,6.50
2018-08-31T15:52:27.013Z,6.87
2018-08-31T15:54:55.953Z,7.00
2018-08-31T15:57:24.905Z,6.87
2018-08-31T15:59:53.734Z,7.33
2018-08-31T16:02:22.615Z,6.77
2018-08-31T16:04:51.509Z,7.83
2018-08-31T16:07:25.156Z,7.60
2018-08-31T16:09:54.059Z,7.60
2018-08-31T16:12:22.815Z,7.57
2018-08-31T16:14:51.757Z,7.90
2018-08-31T16:17:20.505Z,8.20
2018-08-31T16:19:49.280Z,7.97
2018-08-31T16:22:18.197Z,8.43
2018-08-31T16:24:47.113Z,8.50
2018-08-31T16:27:16.368Z,8.17
2018-08-31T16:29:45.213Z,8.77
2018-08-31T16:32:13.983Z,7.87
2018-08-31T16:34:42.951Z,8.07
2018-08-31T16:37:11.765Z,7.53
2018-08-31T16:39:40.769Z,8.30
2018-08-31T16:42:09.591Z,8.30
2018-08-31T16:44:38.456Z,7.90
2018-08-31T16:47:07.651Z,8.00
2018-08-31T16:49:36.507Z,7.37
2018-08-31T16:52:05.334Z,7.97
2018-08-31T16:54:34.224Z,8.07
2018-08-31T16:57:03.078Z,8.50
2018-08-31T16:59:31.926Z,7.80
2018-08-31T17:02:00.756Z,7.70
2018-08-31T17:04:29.849Z,7.33
2018-08-31T17:06:58.730Z,7.80
2018-08-31T17:09:27.681Z,8.73
2018-08-31T17:11:56.489Z,7.53
2018-08-31T17:14:25.354Z,8.23
2018-08-31T17:16:55.436Z,8.00
2018-08-31T17:19:24.345Z,7.70
2018-08-31T17:21:53.245Z,7.93
2018-08-31T17:24:22.161Z,8.00
2018-08-31T17:26:56.107Z,7.63
2018-08-31T17:29:30.156Z,7.93
2018-08-31T17:32:15.590Z,8.10
2018-08-31T17:34:49.815Z,8.00
2018-08-31T17:37:23.936Z,7.53
2018-08-31T17:39:52.967Z,7.83
2018-08-31T17:42:21.865Z,7.43
2018-08-31T17:44:50.722Z,7.27
2018-08-31T17:47:19.571Z,8.03
2018-08-31T17:49:48.475Z,7.63
2018-08-31T17:52:21.301Z,7.50
2018-08-31T17:54:50.212Z,7.13
2018-08-31T17:57:19.146Z,7.70
2018-08-31T17:59:48.013Z,7.20
2018-08-31T18:02:17.085Z,7.70
2018-08-31T18:04:46.972Z,7.63
2018-08-31T18:07:15.873Z,7.53
2018-08-31T18:09:44.857Z,7.07
2018-08-31T18:12:13.680Z,7.60
2018-08-31T18:14:42.761Z,7.43
2018-08-31T18:17:11.643Z,7.97
2018-08-31T18:19:40.644Z,7.47
2018-08-31T18:22:09.658Z,8.10
2018-08-31T18:24:38.723Z,7.70
2018-08-31T18:27:07.577Z,7.70
2018-08-31T18:29:36.585Z,7.67
2018-08-31T18:32:05.822Z,7.53
2018-08-31T18:34:34.791Z,7.97
2018-08-31T18:37:04.130Z,7.60
2018-08-31T18:39:33.015Z,7.70
2018-08-31T18:42:02.956Z,7.33
2018-08-31T18:44:31.867Z,8.40
2018-08-31T18:47:00.705Z,8.20
2018-08-31T18:49:29.565Z,7.90
2018-08-31T18:51:58.595Z,8.20
2018-08-31T18:54:27.533Z,8.57
2018-08-31T18:56:56.564Z,8.50
2018-08-31T18:59:25.396Z,8.03
2018-08-31T19:01:54.920Z,8.60
2018-08-31T19:04:24.262Z,8.87
2018-08-31T19:06:53.196Z,9.63
2018-08-31T19:09:22.116Z,9.33
2018-08-31T19:11:51.252Z,9.10
2018-08-31T19:14:20.208Z,8.90
2018-08-31T19:16:49.251Z,10.03
2018-08-31T19:19:18.162Z,8.93
2018-08-31T19:21:47.110Z,9.43
2018-08-31T19:24:20.147Z,10.07
2018-08-31T19:26:49.452Z,9.70
2018-08-31T19:29:18.451Z,9.80
2018-08-31T19:31:47.756Z,9.87
2018-08-31T19:34:16.652Z,9.83
2018-08-31T19:36:45.542Z,10.33
2018-08-31T19:39:14.898Z,9.97
2018-08-31T19:41:43.814Z,9.90
2018-08-31T19:44:12.887Z,9.97
2018-08-31T19:46:41.972Z,10.00
2018-08-31T19:49:11.113Z,10.20
2018-08-31T19:51:40.130Z,11.13
2018-08-31T19:54:09.493Z,10.60
2018-08-31T19:56:38.382Z,10.37
2018-08-31T19:59:07.369Z,10.57
2018-08-31T20:01:36.160Z,10.87
2018-08-31T20:04:05.066Z,11.07
2018-08-31T20:06:34.063Z,10.70
2018-08-31T20:09:03.282Z,11.20
2018-08-31T20:11:32.501Z,10.43
2018-08-31T20:14:02.282Z,10.83
2018-08-31T20:16:31.138Z,10.17
2018-08-31T20:18:59.982Z,10.23
2018-08-31T20:21:29.444Z,10.07
2018-08-31T20:23:58.441Z,10.53
2018-08-31T20:26:27.338Z,10.33
2018-08-31T20:28:56.753Z,9.67
2018-08-31T20:31:25.654Z,10.00
2018-08-31T20:33:54.598Z,10.10
2018-08-31T20:36:23.462Z,10.53
2018-08-31T20:38:52.834Z,10.70
2018-08-31T20:41:21.687Z,9.57
2018-08-31T20:43:50.591Z,10.93
2018-08-31T20:46:19.674Z,10.10
2018-08-31T20:48:48.870Z,10.40
2018-08-31T20:51:17.902Z,11.23
2018-08-31T20:53:46.816Z,9.83
2018-08-31T20:56:15.788Z,9.97
2018-08-31T20:58:44.606Z,10.10
2018-08-31T21:01:17.008Z,10.03
2018-08-31T21:03:46.320Z,10.40
2018-08-31T21:06:15.582Z,10.27
2018-08-31T21:08:44.918Z,10.20
2018-08-31T21:11:13.906Z,11.00
2018-08-31T21:13:42.628Z,11.83
2018-08-31T21:16:11.600Z,11.90
2018-08-31T21:18:40.526Z,12.00
2018-08-31T21:21:09.396Z,12.53
2018-08-31T21:23:38.286Z,12.67
2018-08-31T21:26:07.576Z,12.43
2018-08-31T21:28:36.540Z,12.60
2018-08-31T21:31:05.590Z,13.13
2018-08-31T21:33:34.360Z,14.10
2018-08-31T21:36:03.228Z,13.87
2018-08-31T21:38:32.047Z,13.90
2018-08-31T21:41:00.906Z,14.47
2018-08-31T21:43:29.817Z,13.67
2018-08-31T21:45:58.685Z,14.17
2018-08-31T21:48:27.643Z,13.33
2018-08-31T21:50:56.578Z,12.60
2018-08-31T21:53:25.421Z,13.77
2018-08-31T21:55:54.651Z,13.50
2018-08-31T21:58:23.602Z,11.87
2018-08-31T22:00:56.590Z,11.20
2018-08-31T22:03:25.758Z,10.60
2018-08-31T22:05:54.661Z,11.40
2018-08-31T22:08:23.591Z,10.50
2018-08-31T22:10:52.366Z,11.57
2018-08-31T22:13:21.362Z,10.87
2018-08-31T22:15:50.152Z,11.13
2018-08-31T22:18:19.158Z,10.47
2018-08-31T22:20:47.972Z,10.13
2018-08-31T22:23:16.760Z,10.00
2018-08-31T22:25:45.709Z,10.87
2018-08-31T22:28:14.745Z,10.33
2018-08-31T22:30:43.780Z,11.07
2018-08-31T22:33:12.750Z,10.40
2018-08-31T22:35:41.674Z,10.67
2018-08-31T22:38:10.544Z,10.53
2018-08-31T22:40:39.420Z,10.37
2018-08-31T22:43:08.174Z,10.07
2018-08-31T22:45:37.288Z,9.67
2018-08-31T22:48:06.102Z,8.97
2018-08-31T22:50:34.970Z,8.57
2018-08-31T22:53:03.988Z,8.60
2018-08-31T22:55:32.826Z,8.67
2018-08-31T22:58:01.754Z,8.27
2018-08-31T23:00:31.409Z,7.97
2018-08-31T23:03:00.307Z,8.10
2018-08-31T23:05:29.058Z,8.67
2018-08-31T23:08:01.802Z,8.10
2018-08-31T23:10:31.358Z,8.63
2018-08-31T23:13:00.372Z,8.90
2018-08-31T23:15:29.342Z,7.90
2018-08-31T23:17:58.156Z,8.40
2018-08-31T23:20:27.441Z,8.33
2018-08-31T23:23:01.684Z,8.60
2018-08-31T23:25:35.810Z,8.43
2018-08-31T23:28:04.688Z,8.10
2018-08-31T23:30:33.604Z,8.33
2018-08-31T23:33:02.486Z,8.77
2018-08-31T23:35:31.318Z,8.63
2018-08-31T23:38:00.175Z,8.20
2018-08-31T23:40:29.141Z,7.83
2018-08-31T23:42:58.348Z,8.07
2018-08-31T23:45:27.325Z,8.47
2018-08-31T23:47:56.330Z,8.60
2018-08-31T23:50:25.582Z,7.70
2018-08-31T23:52:54.772Z,8.67
2018-08-31T23:55:23.756Z,9.10
2018-08-31T23:57:52.620Z,8.27
